Time;durP1;ratioP1;P1;durP2;ratioP2;P2;SDS_P1;SDS_P2;PMS_P1;PMS_P2;Temp;Humidity;BMP_temperature;BMP_pressure;BME280_temperature;BME280_humidity;BME280_pressure;Samples;Min_cycle;Max_cycle;Signal;HPM_P1;HPM_P2
2023/06/14 00:01:34;;;;;;;6.70;2.40;;;;;;;;;;5084137;28;20299;-70
2023/06/14 00:04:02;;;;;;;11.10;2.53;;;;;;;;;;5078772;28;20180;-70
2023/06/14 00:06:30;;;;;;;11.88;2.65;;;;;;;;;;5079406;28;20180;-71
2023/06/14 00:08:56;;;;;;;13.73;3.35;;;;;;;;;;5048727;28;20192;-71
2023/06/14 00:11:21;;;;;;;6.32;2.75;;;;;;;;;;5078743;28;20191;-70
2023/06/14 00:13:47;;;;;;;7.95;2.53;;;;;;;;;;5081968;28;20515;-71
2023/06/14 00:16:12;;;;;;;7.78;2.80;;;;;;;;;;5082348;28;20196;-70
2023/06/14 00:18:38;;;;;;;6.30;2.88;;;;;;;;;;5085834;28;20184;-71
2023/06/14 00:21:04;;;;;;;11.70;2.70;;;;;;;;;;5077171;28;20212;-70
2023/06/14 00:23:29;;;;;;;4.63;2.20;;;;;;;;;;5080001;28;20555;-71
2023/06/14 00:25:55;;;;;;;8.95;2.38;;;;;;;;;;5075503;28;20196;-71
2023/06/14 00:28:20;;;;;;;9.13;2.70;;;;;;;;;;5081852;28;20248;-71
2023/06/14 00:30:46;;;;;;;10.55;2.22;;;;;;;;;;5088268;28;20237;-72
2023/06/14 00:33:12;;;;;;;7.20;2.53;;;;;;;;;;5079877;28;20181;-70
2023/06/14 00:35:37;;;;;;;8.77;2.33;;;;;;;;;;5075178;28;20598;-70
2023/06/14 00:38:03;;;;;;;5.28;2.60;;;;;;;;;;5080787;28;20330;-70
2023/06/14 00:40:28;;;;;;;7.47;2.40;;;;;;;;;;5087042;28;20204;-70
2023/06/14 00:42:54;;;;;;;7.35;2.70;;;;;;;;;;5082374;28;20187;-71
2023/06/14 00:45:19;;;;;;;6.57;2.35;;;;;;;;;;5071223;28;20207;-71
2023/06/14 00:47:46;;;;;;;5.75;2.70;;;;;;;;;;5077015;28;20184;-71
2023/06/14 00:50:12;;;;;;;9.13;2.63;;;;;;;;;;5082124;28;20227;-71
2023/06/14 00:52:39;;;;;;;6.28;2.60;;;;;;;;;;5071703;28;20271;-71
2023/06/14 00:55:05;;;;;;;10.45;2.45;;;;;;;;;;5061474;28;20821;-71
2023/06/14 00:57:31;;;;;;;9.75;2.50;;;;;;;;;;5077530;28;20181;-71
2023/06/14 00:59:57;;;;;;;7.43;2.22;;;;;;;;;;5075364;28;20528;-70
2023/06/14 01:02:24;;;;;;;8.93;2.60;;;;;;;;;;5080127;28;20264;-71
2023/06/14 01:04:51;;;;;;;8.95;2.70;;;;;;;;;;5087605;28;20176;-71
2023/06/14 01:07:26;;;;;;;4.32;2.22;;;;;;;;;;5081622;28;20184;-71
2023/06/14 01:10:20;;;;;;;7.68;2.30;;;;;;;;;;5089801;28;20219;-71
2023/06/14 01:13:15;;;;;;;6.63;2.20;;;;;;;;;;5088258;28;20190;-71
2023/06/14 01:15:43;;;;;;;12.27;2.58;;;;;;;;;;5078041;28;20192;-70
2023/06/14 01:18:17;;;;;;;4.03;2.15;;;;;;;;;;5080961;28;20499;-70
2023/06/14 01:20:44;;;;;;;5.20;2.33;;;;;;;;;;5074250;28;20219;-70
2023/06/14 01:23:12;;;;;;;5.43;2.10;;;;;;;;;;5085488;28;20199;-70
2023/06/14 01:25:38;;;;;;;6.03;2.55;;;;;;;;;;5081402;28;20706;-70
2023/06/14 01:28:12;;;;;;;5.28;2.42;;;;;;;;;;5086645;28;20185;-70
2023/06/14 01:30:44;;;;;;;5.35;2.88;;;;;;;;;;5077258;28;20211;-70
2023/06/14 01:33:13;;;;;;;6.60;2.30;;;;;;;;;;5089809;28;20257;-70
2023/06/14 01:35:39;;;;;;;7.20;2.05;;;;;;;;;;5077081;28;20188;-70
2023/06/14 01:38:07;;;;;;;7.97;2.60;;;;;;;;;;5088470;28;20679;-70
2023/06/14 01:40:34;;;;;;;5.05;2.40;;;;;;;;;;5079362;28;20653;-70
2023/06/14 01:43:00;;;;;;;6.80;2.42;;;;;;;;;;5084869;28;20199;-71
2023/06/14 01:45:26;;;;;;;10.70;2.60;;;;;;;;;;5086936;28;20544;-70
2023/06/14 01:47:52;;;;;;;6.80;2.20;;;;;;;;;;5082821;28;20645;-71
2023/06/14 01:50:20;;;;;;;9.25;2.60;;;;;;;;;;5082795;28;20196;-70
2023/06/14 01:52:45;;;;;;;8.45;3.00;;;;;;;;;;5087429;28;20919;-70
2023/06/14 01:55:11;;;;;;;7.28;2.40;;;;;;;;;;5088777;28;20184;-70
2023/06/14 01:57:36;;;;;;;6.75;2.15;;;;;;;;;;5084258;28;20619;-70
2023/06/14 02:00:03;;;;;;;5.90;2.47;;;;;;;;;;5084940;28;20189;-71
2023/06/14 02:02:29;;;;;;;10.30;2.60;;;;;;;;;;5082672;28;20199;-71
2023/06/14 02:04:57;;;;;;;3.50;2.25;;;;;;;;;;5083776;28;20189;-70
2023/06/14 02:07:22;;;;;;;6.35;2.67;;;;;;;;;;5078613;28;20268;-71
2023/06/14 02:09:48;;;;;;;5.72;2.53;;;;;;;;;;5084329;28;20190;-70
2023/06/14 02:12:13;;;;;;;8.73;3.03;;;;;;;;;;5081592;28;20184;-70
2023/06/14 02:14:39;;;;;;;6.95;2.20;;;;;;;;;;5084906;28;20658;-70
2023/06/14 02:17:06;;;;;;;3.85;2.47;;;;;;;;;;5079429;28;20667;-70
2023/06/14 02:19:32;;;;;;;7.82;2.20;;;;;;;;;;5077058;28;20625;-70
2023/06/14 02:21:57;;;;;;;3.08;2.13;;;;;;;;;;5078839;28;20219;-70
2023/06/14 02:24:23;;;;;;;5.22;2.35;;;;;;;;;;5084495;28;20507;-71
2023/06/14 02:26:49;;;;;;;5.35;2.25;;;;;;;;;;5084461;28;20643;-71
2023/06/14 02:29:14;;;;;;;3.67;2.30;;;;;;;;;;5082010;28;20461;-71
2023/06/14 02:31:40;;;;;;;7.95;2.47;;;;;;;;;;5073524;28;20273;-71
2023/06/14 02:34:08;;;;;;;6.55;2.17;;;;;;;;;;5084822;28;20184;-70
2023/06/14 02:36:34;;;;;;;5.47;2.53;;;;;;;;;;5077368;28;20184;-71
2023/06/14 02:38:59;;;;;;;3.65;2.10;;;;;;;;;;5088031;28;20609;-70
2023/06/14 02:41:25;;;;;;;3.58;2.33;;;;;;;;;;5078473;28;20261;-70
2023/06/14 02:43:51;;;;;;;6.63;2.33;;;;;;;;;;5076739;28;20200;-70
2023/06/14 02:46:17;;;;;;;6.13;2.70;;;;;;;;;;5077784;28;20184;-71
2023/06/14 02:48:42;;;;;;;5.32;2.20;;;;;;;;;;5080921;28;20188;-71
2023/06/14 02:51:09;;;;;;;3.95;2.08;;;;;;;;;;5083975;28;20282;-71
2023/06/14 02:53:35;;;;;;;4.18;2.58;;;;;;;;;;5094573;28;20280;-71
2023/06/14 02:56:01;;;;;;;4.50;2.03;;;;;;;;;;5085476;28;20666;-71
2023/06/14 02:58:26;;;;;;;5.03;2.33;;;;;;;;;;5071745;28;20553;-71
2023/06/14 03:00:52;;;;;;;7.10;2.20;;;;;;;;;;5076513;28;20295;-70
2023/06/14 03:03:18;;;;;;;6.30;2.10;;;;;;;;;;5078154;28;20181;-70
2023/06/14 03:05:47;;;;;;;7.78;2.25;;;;;;;;;;5075074;28;20216;-70
2023/06/14 03:08:19;;;;;;;5.40;2.15;;;;;;;;;;5072384;28;20652;-71
2023/06/14 03:10:48;;;;;;;4.63;2.50;;;;;;;;;;5079863;28;20212;-71
2023/06/14 03:13:15;;;;;;;2.50;2.00;;;;;;;;;;5077847;28;20197;-70
2023/06/14 03:15:44;;;;;;;5.32;2.40;;;;;;;;;;5077672;28;20199;-70
2023/06/14 03:18:11;;;;;;;4.68;1.95;;;;;;;;;;5079768;28;20203;-70
2023/06/14 03:20:37;;;;;;;5.15;2.25;;;;;;;;;;5079921;28;20220;-70
2023/06/14 03:23:03;;;;;;;5.72;2.03;;;;;;;;;;5081682;28;20641;-70
2023/06/14 03:25:34;;;;;;;7.82;2.35;;;;;;;;;;5082009;28;20273;-71
2023/06/14 03:27:59;;;;;;;4.93;2.38;;;;;;;;;;5075763;28;20200;-72
2023/06/14 03:30:25;;;;;;;6.20;2.17;;;;;;;;;;5078010;28;20197;-71
2023/06/14 03:32:55;;;;;;;5.38;2.13;;;;;;;;;;5084588;28;20200;-71
2023/06/14 03:35:21;;;;;;;4.90;1.95;;;;;;;;;;5079055;28;20211;-70
2023/06/14 03:37:47;;;;;;;5.88;2.30;;;;;;;;;;5073281;28;20215;-70
2023/06/14 03:40:13;;;;;;;4.97;2.38;;;;;;;;;;5073760;28;20232;-71
2023/06/14 03:42:39;;;;;;;5.32;2.20;;;;;;;;;;5084755;28;20188;-70
2023/06/14 03:45:06;;;;;;;8.23;2.45;;;;;;;;;;5077784;28;20193;-71
2023/06/14 03:47:31;;;;;;;5.40;2.30;;;;;;;;;;5074047;28;20189;-70
2023/06/14 03:49:57;;;;;;;4.18;2.38;;;;;;;;;;5079365;28;20533;-71
2023/06/14 03:52:23;;;;;;;3.53;2.40;;;;;;;;;;5075573;28;20185;-71
2023/06/14 03:54:49;;;;;;;8.57;2.50;;;;;;;;;;5070596;28;20189;-70
2023/06/14 03:57:15;;;;;;;6.78;2.35;;;;;;;;;;5075054;28;20207;-71
2023/06/14 03:59:41;;;;;;;5.50;2.13;;;;;;;;;;5075085;28;20542;-70
2023/06/14 04:02:07;;;;;;;6.18;2.38;;;;;;;;;;5078273;28;20747;-70
2023/06/14 04:04:32;;;;;;;6.03;2.42;;;;;;;;;;5073348;28;20235;-70
2023/06/14 04:07:00;;;;;;;8.68;2.70;;;;;;;;;;5074226;28;20457;-70
2023/06/14 04:09:25;;;;;;;6.40;2.35;;;;;;;;;;5080257;28;20196;-71
2023/06/14 04:11:53;;;;;;;6.20;2.58;;;;;;;;;;5076480;28;20211;-71
2023/06/14 04:14:19;;;;;;;2.83;2.50;;;;;;;;;;5081860;28;20276;-72
2023/06/14 04:16:46;;;;;;;3.38;2.28;;;;;;;;;;5072484;28;21120;-71
2023/06/14 04:19:12;;;;;;;11.05;2.92;;;;;;;;;;5057649;28;20181;-71
2023/06/14 04:21:37;;;;;;;9.43;2.50;;;;;;;;;;5083853;28;20257;-71
2023/06/14 04:24:03;;;;;;;3.75;2.20;;;;;;;;;;5077693;28;20295;-71
2023/06/14 04:26:29;;;;;;;3.75;2.17;;;;;;;;;;5080681;28;20267;-71
2023/06/14 04:28:56;;;;;;;3.60;2.20;;;;;;;;;;5080606;28;20276;-71
2023/06/14 04:31:25;;;;;;;5.30;2.40;;;;;;;;;;5074102;28;20188;-71
2023/06/14 04:33:50;;;;;;;8.50;2.45;;;;;;;;;;5080957;28;20192;-71
2023/06/14 04:36:17;;;;;;;5.13;2.28;;;;;;;;;;5081239;28;20188;-72
2023/06/14 04:38:44;;;;;;;5.72;2.40;;;;;;;;;;5077856;28;20730;-72
2023/06/14 04:41:11;;;;;;;5.85;2.50;;;;;;;;;;5082666;28;20562;-72
2023/06/14 04:43:37;;;;;;;5.20;2.70;;;;;;;;;;5079601;28;20287;-72
2023/06/14 04:46:05;;;;;;;4.25;2.40;;;;;;;;;;5082916;28;20188;-72
2023/06/14 04:48:31;;;;;;;3.92;2.60;;;;;;;;;;5078534;28;20189;-72
2023/06/14 04:50:56;;;;;;;8.35;2.55;;;;;;;;;;5080178;28;20191;-72
2023/06/14 04:53:23;;;;;;;3.95;2.38;;;;;;;;;;5079844;28;20374;-72
2023/06/14 04:55:50;;;;;;;4.75;2.90;;;;;;;;;;5074909;28;20257;-71
2023/06/14 04:58:15;;;;;;;5.47;2.17;;;;;;;;;;5082310;28;20180;-72
2023/06/14 05:00:43;;;;;;;6.40;2.50;;;;;;;;;;5082098;28;20230;-72
2023/06/14 05:03:09;;;;;;;3.35;2.35;;;;;;;;;;5083537;28;20752;-72
2023/06/14 05:05:34;;;;;;;6.25;2.47;;;;;;;;;;5079754;28;20184;-72
2023/06/14 05:08:00;;;;;;;4.93;2.65;;;;;;;;;;5074668;28;20181;-71
2023/06/14 05:10:25;;;;;;;3.83;2.33;;;;;;;;;;5080691;28;20241;-72
2023/06/14 05:12:52;;;;;;;4.93;2.70;;;;;;;;;;5069936;28;20188;-72
2023/06/14 05:15:18;;;;;;;5.20;2.55;;;;;;;;;;5076602;28;20184;-72
2023/06/14 05:17:50;;;;;;;5.45;2.63;;;;;;;;;;5072296;28;20235;-72
2023/06/14 05:20:15;;;;;;;3.50;2.40;;;;;;;;;;5080901;28;20270;-72
2023/06/14 05:22:41;;;;;;;6.47;2.70;;;;;;;;;;5073806;28;20185;-72
2023/06/14 05:25:07;;;;;;;3.22;2.40;;;;;;;;;;5076288;28;20185;-72
2023/06/14 05:27:35;;;;;;;5.50;2.55;;;;;;;;;;5084686;28;20191;-71
2023/06/14 05:30:00;;;;;;;5.82;2.50;;;;;;;;;;5083716;28;20200;-72
2023/06/14 05:32:26;;;;;;;5.93;2.55;;;;;;;;;;5080747;28;20180;-72
2023/06/14 05:34:51;;;;;;;6.60;2.50;;;;;;;;;;5077828;28;20265;-71
2023/06/14 05:37:17;;;;;;;3.67;2.30;;;;;;;;;;5080780;28;20210;-71
2023/06/14 05:39:42;;;;;;;4.45;2.47;;;;;;;;;;5082263;28;20219;-70
2023/06/14 05:42:08;;;;;;;5.00;2.85;;;;;;;;;;5078532;28;20652;-70
2023/06/14 05:44:33;;;;;;;2.85;2.55;;;;;;;;;;5074338;28;20472;-71
2023/06/14 05:46:59;;;;;;;4.82;2.70;;;;;;;;;;5076502;28;20188;-70
2023/06/14 05:49:24;;;;;;;6.30;2.97;;;;;;;;;;5084733;28;20693;-71
2023/06/14 05:51:51;;;;;;;5.63;2.78;;;;;;;;;;5072162;28;20188;-72
2023/06/14 05:54:16;;;;;;;3.42;2.40;;;;;;;;;;5077549;28;20185;-71
2023/06/14 05:56:42;;;;;;;6.38;2.50;;;;;;;;;;5071582;28;20555;-72
2023/06/14 05:59:07;;;;;;;3.97;2.70;;;;;;;;;;5084099;28;20559;-71
2023/06/14 06:01:36;;;;;;;6.70;2.25;;;;;;;;;;5088468;28;20204;-72
2023/06/14 06:04:02;;;;;;;6.25;2.70;;;;;;;;;;5086711;28;20270;-71
2023/06/14 06:06:27;;;;;;;5.68;2.08;;;;;;;;;;5087933;28;20282;-70
2023/06/14 06:08:53;;;;;;;3.75;2.53;;;;;;;;;;5078841;28;20265;-71
2023/06/14 06:11:18;;;;;;;4.28;2.50;;;;;;;;;;5088090;28;20616;-71
2023/06/14 06:13:43;;;;;;;4.10;2.60;;;;;;;;;;5081708;28;20236;-71
2023/06/14 06:16:09;;;;;;;4.35;2.30;;;;;;;;;;5081498;28;20195;-71
2023/06/14 06:18:34;;;;;;;10.27;2.13;;;;;;;;;;5085806;28;20180;-69
2023/06/14 06:21:00;;;;;;;2.90;2.03;;;;;;;;;;5078051;28;20224;-71
2023/06/14 06:23:26;;;;;;;8.82;2.20;;;;;;;;;;5073707;28;20188;-71
2023/06/14 06:25:51;;;;;;;4.25;1.90;;;;;;;;;;5084309;28;20287;-72
2023/06/14 06:28:17;;;;;;;5.45;2.50;;;;;;;;;;5079149;28;20204;-71
2023/06/14 06:30:42;;;;;;;3.80;2.00;;;;;;;;;;5073298;28;20206;-71
2023/06/14 06:33:08;;;;;;;3.53;2.25;;;;;;;;;;5071078;28;20607;-70
2023/06/14 06:35:33;;;;;;;3.92;2.17;;;;;;;;;;5075667;28;20189;-71
2023/06/14 06:37:59;;;;;;;3.28;2.00;;;;;;;;;;5074543;28;20188;-70
2023/06/14 06:40:25;;;;;;;3.97;2.03;;;;;;;;;;5079139;28;20343;-72
2023/06/14 06:42:50;;;;;;;6.03;2.30;;;;;;;;;;5079573;28;20264;-71
2023/06/14 06:45:16;;;;;;;4.30;1.85;;;;;;;;;;5075643;28;20812;-71
2023/06/14 06:47:41;;;;;;;3.85;2.10;;;;;;;;;;5071353;28;20438;-71
2023/06/14 06:50:07;;;;;;;6.00;2.15;;;;;;;;;;5074267;28;20610;-72
2023/06/14 06:52:33;;;;;;;5.65;2.15;;;;;;;;;;5068484;28;20181;-71
2023/06/14 06:54:58;;;;;;;7.28;2.17;;;;;;;;;;5079592;28;20672;-69
2023/06/14 06:57:23;;;;;;;4.30;2.08;;;;;;;;;;5084793;28;20286;-71
2023/06/14 06:59:49;;;;;;;7.63;1.98;;;;;;;;;;5083856;28;20748;-71
2023/06/14 07:02:15;;;;;;;9.20;2.25;;;;;;;;;;5089303;28;20215;-71
2023/06/14 07:04:41;;;;;;;3.50;1.63;;;;;;;;;;5081886;28;20193;-71
2023/06/14 07:07:06;;;;;;;4.35;1.80;;;;;;;;;;5076830;28;20272;-71
2023/06/14 07:09:32;;;;;;;4.85;1.60;;;;;;;;;;5079998;28;20200;-69
2023/06/14 07:11:57;;;;;;;3.22;1.80;;;;;;;;;;5076253;28;20255;-71
2023/06/14 07:14:24;;;;;;;5.03;2.00;;;;;;;;;;5088456;28;20195;-69
2023/06/14 07:16:49;;;;;;;6.78;2.25;;;;;;;;;;5085801;28;20176;-72
2023/06/14 07:19:14;;;;;;;2.78;1.80;;;;;;;;;;5089127;28;20652;-70
2023/06/14 07:21:40;;;;;;;5.40;2.00;;;;;;;;;;5071254;28;20246;-70
2023/06/14 07:24:09;;;;;;;5.97;2.00;;;;;;;;;;5076919;28;20195;-70
2023/06/14 07:26:35;;;;;;;3.13;1.85;;;;;;;;;;5071522;28;20181;-73
2023/06/14 07:29:01;;;;;;;5.38;1.90;;;;;;;;;;5078133;28;20692;-70
2023/06/14 07:31:27;;;;;;;2.42;1.52;;;;;;;;;;5085146;28;20263;-69
2023/06/14 07:33:52;;;;;;;3.63;1.85;;;;;;;;;;5080926;28;20207;-71
2023/06/14 07:36:18;;;;;;;3.22;1.80;;;;;;;;;;5084893;28;20176;-69
2023/06/14 07:38:44;;;;;;;5.05;1.88;;;;;;;;;;5083282;28;20227;-71
2023/06/14 07:41:09;;;;;;;4.50;1.92;;;;;;;;;;5083405;28;20556;-70
2023/06/14 07:43:35;;;;;;;3.80;1.60;;;;;;;;;;5076641;28;20208;-71
2023/06/14 07:46:00;;;;;;;2.45;1.70;;;;;;;;;;5083024;28;20289;-71
2023/06/14 07:48:26;;;;;;;2.10;1.55;;;;;;;;;;5069625;28;20189;-71
2023/06/14 07:50:51;;;;;;;4.47;1.80;;;;;;;;;;5070629;28;20593;-70
2023/06/14 07:53:16;;;;;;;3.17;1.60;;;;;;;;;;5087586;28;20211;-74
2023/06/14 07:55:43;;;;;;;4.88;1.90;;;;;;;;;;5087800;28;20219;-70
2023/06/14 07:58:09;;;;;;;2.45;1.50;;;;;;;;;;5079375;28;20184;-71
2023/06/14 08:00:34;;;;;;;2.60;1.45;;;;;;;;;;5089432;28;20269;-71
2023/06/14 08:03:00;;;;;;;4.45;1.92;;;;;;;;;;5087283;28;20192;-70
2023/06/14 08:05:26;;;;;;;3.53;1.98;;;;;;;;;;5089474;28;20216;-73
2023/06/14 08:07:52;;;;;;;5.07;1.70;;;;;;;;;;5089691;28;20189;-73
2023/06/14 08:10:18;;;;;;;3.63;1.58;;;;;;;;;;5075491;28;20219;-70
2023/06/14 08:12:43;;;;;;;5.63;1.70;;;;;;;;;;5080356;28;20184;-70
2023/06/14 08:15:09;;;;;;;3.75;1.52;;;;;;;;;;5084692;28;20884;-69
2023/06/14 08:17:35;;;;;;;2.90;1.50;;;;;;;;;;5069078;28;20215;-71
2023/06/14 08:20:00;;;;;;;4.95;1.83;;;;;;;;;;5077684;28;20663;-71
2023/06/14 08:22:27;;;;;;;3.55;1.70;;;;;;;;;;5081105;28;20253;-69
2023/06/14 08:24:54;;;;;;;3.13;1.40;;;;;;;;;;5083329;28;20593;-69
2023/06/14 08:27:19;;;;;;;1.27;1.17;;;;;;;;;;5076926;28;20215;-70
2023/06/14 08:29:45;;;;;;;4.25;1.88;;;;;;;;;;5083994;28;20216;-70
2023/06/14 08:32:11;;;;;;;5.70;1.58;;;;;;;;;;5086498;28;20185;-71
2023/06/14 08:34:36;;;;;;;6.80;1.73;;;;;;;;;;5078646;28;20188;-72
2023/06/14 08:37:02;;;;;;;2.15;1.25;;;;;;;;;;5077010;28;20282;-71
2023/06/14 08:39:27;;;;;;;3.15;1.75;;;;;;;;;;5073289;28;20231;-71
2023/06/14 08:41:54;;;;;;;5.18;1.70;;;;;;;;;;5074408;28;20418;-71
2023/06/14 08:44:19;;;;;;;1.88;1.60;;;;;;;;;;5066430;28;20246;-70
2023/06/14 08:46:47;;;;;;;2.90;1.52;;;;;;;;;;5074847;28;20184;-71
2023/06/14 08:49:14;;;;;;;2.15;1.70;;;;;;;;;;5078666;28;20195;-71
2023/06/14 08:51:40;;;;;;;1.88;1.70;;;;;;;;;;5086107;28;20194;-70
2023/06/14 08:54:06;;;;;;;3.35;1.70;;;;;;;;;;5086353;28;20698;-71
2023/06/14 08:56:33;;;;;;;3.40;1.67;;;;;;;;;;5079385;28;20212;-70
2023/06/14 08:59:03;;;;;;;2.58;1.50;;;;;;;;;;5076602;28;20187;-70
2023/06/14 09:01:31;;;;;;;4.53;1.65;;;;;;;;;;5070189;28;20287;-69
2023/06/14 09:03:57;;;;;;;2.50;1.65;;;;;;;;;;5068381;28;20219;-70
2023/06/14 09:06:23;;;;;;;1.98;1.40;;;;;;;;;;5087973;28;20223;-70
2023/06/14 09:08:49;;;;;;;3.92;1.80;;;;;;;;;;5081316;28;20576;-70
2023/06/14 09:11:21;;;;;;;6.13;1.50;;;;;;;;;;5087112;28;20171;-71
2023/06/14 09:13:47;;;;;;;3.28;1.40;;;;;;;;;;5073090;28;20508;-70
2023/06/14 09:16:13;;;;;;;4.47;1.63;;;;;;;;;;5074798;28;20601;-70
2023/06/14 09:18:44;;;;;;;2.10;1.27;;;;;;;;;;5070242;28;20218;-70
2023/06/14 09:21:11;;;;;;;1.83;1.23;;;;;;;;;;5086526;28;20250;-70
2023/06/14 09:23:38;;;;;;;5.25;1.70;;;;;;;;;;5073584;28;20214;-70
2023/06/14 09:26:08;;;;;;;1.70;1.60;;;;;;;;;;5079062;28;20180;-71
2023/06/14 09:28:34;;;;;;;2.05;1.73;;;;;;;;;;5067657;28;20192;-70
2023/06/14 09:31:00;;;;;;;4.47;1.80;;;;;;;;;;5086108;28;20172;-69
2023/06/14 09:33:26;;;;;;;4.28;1.60;;;;;;;;;;5079370;28;20197;-70
2023/06/14 09:35:52;;;;;;;4.32;1.50;;;;;;;;;;5090656;28;20597;-74
2023/06/14 09:38:18;;;;;;;2.95;1.55;;;;;;;;;;5091050;28;20274;-70
2023/06/14 09:40:43;;;;;;;2.50;1.73;;;;;;;;;;5084894;28;20287;-70
2023/06/14 09:43:09;;;;;;;2.90;1.42;;;;;;;;;;5089750;28;20285;-70
2023/06/14 09:45:35;;;;;;;3.97;1.63;;;;;;;;;;5086738;28;20226;-70
2023/06/14 09:48:01;;;;;;;5.15;1.88;;;;;;;;;;5088839;28;20176;-68
2023/06/14 09:50:27;;;;;;;4.22;1.70;;;;;;;;;;5085565;28;20219;-71
2023/06/14 09:52:59;;;;;;;6.25;1.77;;;;;;;;;;5071611;28;20211;-70
2023/06/14 09:55:29;;;;;;;3.85;1.88;;;;;;;;;;5081024;28;20264;-72
2023/06/14 09:57:56;;;;;;;7.97;1.95;;;;;;;;;;5076967;28;20184;-70
2023/06/14 10:00:23;;;;;;;3.03;1.58;;;;;;;;;;5089878;28;20724;-70
2023/06/14 10:02:54;;;;;;;3.85;1.98;;;;;;;;;;5077663;28;20189;-70
2023/06/14 10:05:20;;;;;;;3.30;1.67;;;;;;;;;;5079248;28;20184;-70
2023/06/14 10:08:08;;;;;;;3.38;1.70;;;;;;;;;;5072167;28;20199;-72
2023/06/14 10:10:34;;;;;;;2.08;1.52;;;;;;;;;;5082696;28;20219;-70
2023/06/14 10:13:00;;;;;;;1.90;1.50;;;;;;;;;;5077945;28;20184;-73
2023/06/14 10:15:50;;;;;;;2.40;1.58;;;;;;;;;;5078432;28;20198;-71
2023/06/14 10:18:36;;;;;;;3.63;1.83;;;;;;;;;;5079582;28;20268;-70
2023/06/14 10:21:18;;;;;;;2.40;1.60;;;;;;;;;;5084034;28;20207;-70
2023/06/14 10:23:46;;;;;;;2.08;1.50;;;;;;;;;;5086702;28;20184;-71
2023/06/14 10:26:22;;;;;;;4.93;1.50;;;;;;;;;;5075755;28;20192;-69
2023/06/14 10:29:01;;;;;;;2.70;1.42;;;;;;;;;;5085301;28;20290;-70
2023/06/14 10:31:48;;;;;;;4.82;1.70;;;;;;;;;;5075040;28;20188;-69
2023/06/14 10:34:25;;;;;;;7.90;1.88;;;;;;;;;;5075878;28;20189;-68
2023/06/14 10:37:10;;;;;;;3.00;1.60;;;;;;;;;;5076023;28;20196;-69
2023/06/14 10:39:42;;;;;;;6.82;1.70;;;;;;;;;;5073353;28;20282;-71
2023/06/14 10:42:08;;;;;;;2.58;1.42;;;;;;;;;;5085021;28;20722;-69
2023/06/14 10:44:41;;;;;;;5.32;1.55;;;;;;;;;;5075461;28;20180;-69
2023/06/14 10:47:19;;;;;;;3.00;1.38;;;;;;;;;;5076951;28;20192;-71
2023/06/14 10:49:48;;;;;;;3.22;1.50;;;;;;;;;;5074019;28;20253;-71
2023/06/14 10:52:20;;;;;;;4.80;1.70;;;;;;;;;;5075501;28;20184;-70
2023/06/14 10:55:06;;;;;;;4.18;1.95;;;;;;;;;;5068914;28;20535;-71
2023/06/14 10:57:38;;;;;;;3.85;1.73;;;;;;;;;;5073270;28;20268;-70
2023/06/14 11:00:12;;;;;;;3.35;1.60;;;;;;;;;;5081287;28;20188;-70
2023/06/14 11:02:54;;;;;;;2.83;1.55;;;;;;;;;;5069100;28;20204;-70
2023/06/14 11:05:29;;;;;;;4.93;1.63;;;;;;;;;;5073471;28;20211;-71
2023/06/14 11:08:32;;;;;;;2.55;1.40;;;;;;;;;;5076931;28;20176;-70
2023/06/14 11:11:00;;;;;;;1.90;1.63;;;;;;;;;;5073156;28;20253;-70
2023/06/14 11:13:26;;;;;;;4.07;1.50;;;;;;;;;;5075121;28;20181;-71
2023/06/14 11:15:53;;;;;;;4.28;1.75;;;;;;;;;;5074346;28;20196;-70
2023/06/14 11:18:24;;;;;;;2.63;1.70;;;;;;;;;;5081960;28;20712;-70
2023/06/14 11:20:49;;;;;;;2.15;1.70;;;;;;;;;;5074996;28;20214;-70
2023/06/14 11:23:14;;;;;;;4.43;1.52;;;;;;;;;;5074846;28;20205;-70
2023/06/14 11:25:40;;;;;;;3.97;1.60;;;;;;;;;;5081820;28;20590;-70
2023/06/14 11:28:05;;;;;;;1.88;1.60;;;;;;;;;;5088144;28;20203;-70
2023/06/14 11:30:30;;;;;;;5.85;1.65;;;;;;;;;;5081462;28;20227;-70
2023/06/14 11:32:57;;;;;;;9.35;1.65;;;;;;;;;;5081145;28;20196;-70
2023/06/14 11:35:25;;;;;;;1.95;1.40;;;;;;;;;;5069828;28;20195;-70
2023/06/14 11:37:57;;;;;;;2.35;1.33;;;;;;;;;;5081017;28;20177;-70
2023/06/14 11:40:25;;;;;;;3.45;1.40;;;;;;;;;;5082537;28;20270;-71
2023/06/14 11:42:58;;;;;;;1.40;1.30;;;;;;;;;;5069110;28;20204;-71
2023/06/14 11:45:24;;;;;;;3.80;1.40;;;;;;;;;;5081544;28;20215;-70
2023/06/14 11:47:50;;;;;;;6.20;1.40;;;;;;;;;;5079844;28;20184;-69
2023/06/14 11:50:15;;;;;;;1.67;1.42;;;;;;;;;;5075269;28;20565;-70
2023/06/14 11:52:41;;;;;;;3.00;1.50;;;;;;;;;;5077181;28;20643;-70
2023/06/14 11:55:07;;;;;;;2.45;1.63;;;;;;;;;;5085325;28;20308;-71
2023/06/14 11:57:36;;;;;;;3.10;1.75;;;;;;;;;;5074078;28;20180;-71
2023/06/14 12:00:15;;;;;;;3.45;1.50;;;;;;;;;;5074687;28;20192;-70
2023/06/14 12:02:40;;;;;;;2.90;1.35;;;;;;;;;;5079595;28;20604;-70
2023/06/14 12:05:09;;;;;;;3.35;1.27;;;;;;;;;;5070842;28;20279;-70
2023/06/14 12:07:39;;;;;;;3.80;1.23;;;;;;;;;;5089689;28;20196;-69
2023/06/14 12:10:07;;;;;;;3.63;1.60;;;;;;;;;;5084961;28;20179;-69
2023/06/14 12:12:37;;;;;;;2.65;1.40;;;;;;;;;;5081392;28;20635;-70
2023/06/14 12:15:07;;;;;;;2.03;1.30;;;;;;;;;;5068764;28;20857;-71
2023/06/14 12:17:34;;;;;;;3.72;1.42;;;;;;;;;;5079273;28;20188;-70
2023/06/14 12:20:11;;;;;;;7.97;1.50;;;;;;;;;;5083399;28;20199;-70
2023/06/14 12:22:37;;;;;;;5.30;1.40;;;;;;;;;;5082661;28;20208;-71
2023/06/14 12:25:04;;;;;;;3.22;1.30;;;;;;;;;;5073347;28;20337;-71
2023/06/14 12:27:29;;;;;;;1.58;1.30;;;;;;;;;;5081747;28;20655;-71
2023/06/14 12:30:02;;;;;;;2.20;1.58;;;;;;;;;;5082068;28;20192;-71
2023/06/14 12:32:29;;;;;;;1.98;1.27;;;;;;;;;;5096897;28;20200;-71
2023/06/14 12:34:54;;;;;;;2.30;1.30;;;;;;;;;;5081205;28;20187;-72
2023/06/14 12:37:20;;;;;;;1.95;1.08;;;;;;;;;;5083982;28;20193;-70
2023/06/14 12:39:45;;;;;;;3.97;1.40;;;;;;;;;;5078890;28;20288;-71
2023/06/14 12:42:11;;;;;;;2.25;1.35;;;;;;;;;;5086729;28;20208;-70
2023/06/14 12:44:40;;;;;;;3.88;1.40;;;;;;;;;;5080949;28;20573;-70
2023/06/14 12:47:07;;;;;;;3.60;1.17;;;;;;;;;;5082488;28;20218;-70
2023/06/14 12:49:32;;;;;;;2.53;1.13;;;;;;;;;;5074760;28;20187;-69
2023/06/14 12:51:58;;;;;;;2.63;1.60;;;;;;;;;;5086943;28;20271;-69
2023/06/14 12:54:25;;;;;;;3.03;1.40;;;;;;;;;;5069472;28;20230;-71
2023/06/14 12:56:51;;;;;;;2.30;1.52;;;;;;;;;;5072626;28;20186;-71
2023/06/14 12:59:17;;;;;;;4.88;1.50;;;;;;;;;;5075982;28;20555;-70
2023/06/14 13:01:42;;;;;;;6.93;1.45;;;;;;;;;;5080922;28;20274;-70
2023/06/14 13:04:08;;;;;;;2.55;1.15;;;;;;;;;;5069744;28;20212;-72
2023/06/14 13:06:33;;;;;;;4.50;1.50;;;;;;;;;;5082815;28;20216;-73
2023/06/14 13:09:00;;;;;;;1.40;1.15;;;;;;;;;;5073871;28;20574;-71
2023/06/14 13:11:25;;;;;;;2.40;1.30;;;;;;;;;;5086470;28;20768;-71
2023/06/14 13:13:51;;;;;;;1.52;1.20;;;;;;;;;;5073270;28;20208;-70
2023/06/14 13:16:16;;;;;;;3.33;1.30;;;;;;;;;;5075055;28;20240;-71
2023/06/14 13:18:41;;;;;;;2.35;1.30;;;;;;;;;;5073701;28;20561;-70
2023/06/14 13:21:07;;;;;;;1.25;1.08;;;;;;;;;;5076892;28;20199;-71
2023/06/14 13:23:32;;;;;;;3.97;1.50;;;;;;;;;;5078525;28;20203;-70
2023/06/14 13:25:58;;;;;;;2.83;1.38;;;;;;;;;;5075213;28;20223;-71
2023/06/14 13:28:23;;;;;;;2.88;1.40;;;;;;;;;;5081222;28;20191;-71
2023/06/14 13:30:48;;;;;;;3.33;1.33;;;;;;;;;;5083639;28;20264;-70
2023/06/14 13:33:14;;;;;;;5.43;1.40;;;;;;;;;;5075611;28;20204;-70
2023/06/14 13:35:40;;;;;;;2.42;1.45;;;;;;;;;;5074757;28;20177;-70
2023/06/14 13:38:05;;;;;;;4.05;1.45;;;;;;;;;;5074742;28;20200;-72
2023/06/14 13:40:30;;;;;;;3.28;1.15;;;;;;;;;;5070459;28;20199;-72
2023/06/14 13:42:56;;;;;;;4.22;1.45;;;;;;;;;;5076582;28;20676;-70
2023/06/14 13:45:21;;;;;;;1.80;1.35;;;;;;;;;;5067892;28;20188;-70
2023/06/14 13:47:48;;;;;;;1.45;1.00;;;;;;;;;;5076223;28;20191;-71
2023/06/14 13:50:13;;;;;;;5.72;1.05;;;;;;;;;;5071224;28;20196;-70
2023/06/14 13:52:40;;;;;;;2.28;1.10;;;;;;;;;;5073721;28;20605;-70
2023/06/14 13:55:05;;;;;;;3.20;1.45;;;;;;;;;;5071267;28;20200;-69
2023/06/14 13:57:31;;;;;;;3.05;1.10;;;;;;;;;;5083710;28;20195;-70
2023/06/14 14:00:00;;;;;;;2.33;1.10;;;;;;;;;;5067093;28;20195;-72
2023/06/14 14:02:26;;;;;;;4.13;1.15;;;;;;;;;;5075495;28;20736;-69
2023/06/14 14:04:53;;;;;;;3.00;1.25;;;;;;;;;;5080847;28;20530;-71
2023/06/14 14:07:20;;;;;;;2.33;1.40;;;;;;;;;;5069100;28;20204;-70
2023/06/14 14:09:45;;;;;;;1.88;1.30;;;;;;;;;;5079489;28;20231;-70
2023/06/14 14:12:11;;;;;;;1.38;1.00;;;;;;;;;;5083667;28;20188;-70
2023/06/14 14:14:36;;;;;;;2.50;1.20;;;;;;;;;;5081052;28;20199;-70
2023/06/14 14:17:02;;;;;;;1.50;1.00;;;;;;;;;;5080698;28;20196;-70
2023/06/14 14:19:28;;;;;;;1.30;1.20;;;;;;;;;;5085668;28;20228;-71
2023/06/14 14:21:53;;;;;;;1.67;1.08;;;;;;;;;;5074332;28;20209;-72
2023/06/14 14:24:19;;;;;;;4.25;1.60;;;;;;;;;;5079017;28;20672;-69
2023/06/14 14:26:47;;;;;;;3.22;1.45;;;;;;;;;;5074835;28;20188;-69
2023/06/14 14:29:13;;;;;;;2.45;1.30;;;;;;;;;;5081826;28;20279;-71
2023/06/14 14:31:38;;;;;;;2.15;1.25;;;;;;;;;;5081994;28;20728;-69
2023/06/14 14:34:03;;;;;;;2.35;1.20;;;;;;;;;;5087397;28;20192;-70
2023/06/14 14:36:29;;;;;;;1.80;1.20;;;;;;;;;;5081722;28;20648;-70
2023/06/14 14:38:54;;;;;;;2.35;1.30;;;;;;;;;;5081702;28;20319;-69
2023/06/14 14:41:19;;;;;;;2.55;1.15;;;;;;;;;;5086238;28;20209;-70
2023/06/14 14:43:45;;;;;;;3.38;1.27;;;;;;;;;;5089440;28;20215;-69